createdAt,value
2023-04-18T00:00:00.999Z,77
2023-04-18T00:04:02.304Z,78
2023-04-18T00:08:00.932Z,78
2023-04-18T00:12:01.189Z,78
2023-04-18T00:16:01.628Z,78
2023-04-18T00:20:06.100Z,78
2023-04-18T00:24:01.334Z,78
2023-04-18T00:28:00.996Z,78
2023-04-18T00:32:00.834Z,79
2023-04-18T00:36:00.946Z,79
2023-04-18T00:40:01.043Z,79
2023-04-18T00:44:00.934Z,79
2023-04-18T00:48:01.160Z,79
2023-04-18T00:52:01.039Z,79
2023-04-18T00:56:01.244Z,79
2023-04-18T01:00:01.716Z,79
2023-04-18T01:04:01.533Z,79
2023-04-18T01:08:01.572Z,79
2023-04-18T01:12:01.073Z,79
2023-04-18T01:16:01.097Z,79
2023-04-18T01:20:01.188Z,79
2023-04-18T01:24:07.032Z,80
2023-04-18T01:28:01.793Z,80
2023-04-18T01:32:01.744Z,80
2023-04-18T01:36:00.964Z,80
2023-04-18T01:40:01.034Z,80
2023-04-18T01:44:01.180Z,81
2023-04-18T01:48:01.060Z,81
2023-04-18T01:52:00.910Z,81
2023-04-18T01:56:00.891Z,81
2023-04-18T02:00:01.084Z,81
2023-04-18T02:04:01.129Z,82
2023-04-18T02:08:00.983Z,82
2023-04-18T02:12:01.924Z,82
2023-04-18T02:16:01.288Z,82
2023-04-18T02:20:01.025Z,82
2023-04-18T02:24:00.944Z,82
2023-04-18T02:28:01.010Z,82
2023-04-18T02:32:01.044Z,82
2023-04-18T02:36:00.993Z,82
2023-04-18T02:40:01.040Z,82
2023-04-18T02:44:00.919Z,83
2023-04-18T02:48:01.116Z,83
2023-04-18T02:52:01.035Z,82
2023-04-18T02:56:01.548Z,82
2023-04-18T03:00:00.994Z,82
2023-04-18T03:04:01.131Z,82
2023-04-18T03:08:00.936Z,82
2023-04-18T03:12:01.453Z,82
2023-04-18T03:16:01.655Z,82
2023-04-18T03:20:01.040Z,82
2023-04-18T03:24:01.010Z,82
2023-04-18T03:28:01.041Z,82
2023-04-18T03:32:00.994Z,83
2023-04-18T03:36:00.989Z,83
2023-04-18T03:40:01.075Z,83
2023-04-18T03:44:00.975Z,83
2023-04-18T03:48:01.081Z,83
2023-04-18T03:52:01.012Z,83
2023-04-18T03:56:00.954Z,83
2023-04-18T04:00:01.029Z,83
2023-04-18T04:04:02.238Z,84
2023-04-18T04:08:00.927Z,84
2023-04-18T04:12:02.180Z,83
2023-04-18T04:16:01.153Z,83
2023-04-18T04:20:01.069Z,83
2023-04-18T04:24:01.015Z,83
2023-04-18T04:28:01.847Z,83
2023-04-18T04:32:01.263Z,84
2023-04-18T04:36:00.947Z,84
2023-04-18T04:40:01.888Z,84
2023-04-18T04:44:00.880Z,84
2023-04-18T04:48:01.062Z,84
2023-04-18T04:52:02.263Z,85
2023-04-18T04:56:00.932Z,85
2023-04-18T05:00:01.059Z,85
2023-04-18T05:04:01.243Z,85
2023-04-18T05:08:01.186Z,85
2023-04-18T05:12:00.987Z,86
2023-04-18T05:16:01.020Z,86
2023-04-18T05:20:00.985Z,86
2023-04-18T05:24:01.038Z,86
2023-04-18T05:28:03.556Z,86
2023-04-18T05:32:01.144Z,87
2023-04-18T05:36:00.952Z,87
2023-04-18T05:40:01.401Z,87
2023-04-18T05:44:16.976Z,88
2023-04-18T05:48:01.092Z,88
2023-04-18T05:52:01.209Z,90
2023-04-18T05:56:00.871Z,90
2023-04-18T06:00:00.961Z,90
2023-04-18T06:04:01.299Z,89
2023-04-18T06:08:00.903Z,89
2023-04-18T06:12:01.002Z,89
2023-04-18T06:16:01.107Z,89
2023-04-18T06:20:00.986Z,89
2023-04-18T06:24:01.050Z,88
2023-04-18T06:28:01.057Z,88
2023-04-18T06:32:01.132Z,87
2023-04-18T06:36:00.969Z,87
2023-04-18T06:40:01.048Z,87
2023-04-18T06:44:10.784Z,86
2023-04-18T06:48:02.466Z,86
2023-04-18T06:52:01.092Z,85
2023-04-18T06:56:01.214Z,85
2023-04-18T07:00:00.941Z,85
2023-04-18T07:04:01.106Z,83
2023-04-18T07:08:00.895Z,83
2023-04-18T07:12:01.026Z,82
2023-04-18T07:16:01.225Z,82
2023-04-18T07:20:01.011Z,82
2023-04-18T07:24:00.948Z,79
2023-04-18T07:28:01.062Z,79
2023-04-18T07:32:00.885Z,77
2023-04-18T07:36:01.993Z,77
2023-04-18T07:40:01.055Z,77
2023-04-18T07:44:01.412Z,74
2023-04-18T07:48:01.655Z,74
2023-04-18T07:52:01.036Z,72
2023-04-18T07:56:00.865Z,72
2023-04-18T08:00:01.045Z,72
2023-04-18T08:04:01.314Z,70
2023-04-18T08:08:00.960Z,70
2023-04-18T08:12:01.646Z,67
2023-04-18T08:16:02.145Z,67
2023-04-18T08:20:04.145Z,67
2023-04-18T08:24:00.986Z,65
2023-04-18T08:28:01.175Z,65
2023-04-18T08:32:01.076Z,63
2023-04-18T08:36:00.882Z,63
2023-04-18T08:40:02.604Z,63
2023-04-18T08:44:01.168Z,63
2023-04-18T08:48:02.596Z,63
2023-04-18T08:52:01.820Z,60
2023-04-18T08:56:01.899Z,60
2023-04-18T09:00:01.163Z,60
2023-04-18T09:04:01.343Z,58
2023-04-18T09:08:10.647Z,58
2023-04-18T09:12:06.612Z,56
2023-04-18T09:16:00.957Z,56
2023-04-18T09:20:03.990Z,56
2023-04-18T09:24:13.886Z,54
2023-04-18T09:28:02.097Z,54
2023-04-18T09:32:01.510Z,54
2023-04-18T09:36:10.694Z,54
2023-04-18T09:40:10.677Z,52
2023-04-18T09:44:08.412Z,52
2023-04-18T09:48:01.046Z,52
2023-04-18T09:52:03.754Z,52
2023-04-18T09:56:02.069Z,52
2023-04-18T10:00:09.588Z,51
2023-04-18T10:04:03.316Z,51
2023-04-18T10:08:01.542Z,51
2023-04-18T10:12:01.920Z,50
2023-04-18T10:16:01.984Z,50
2023-04-18T10:20:07.153Z,50
2023-04-18T10:24:00.925Z,49
2023-04-18T10:28:01.848Z,49
2023-04-18T10:32:04.547Z,50
2023-04-18T10:36:02.604Z,50
2023-04-18T10:40:05.866Z,50
2023-04-18T10:44:10.902Z,49
2023-04-18T10:48:10.703Z,49
2023-04-18T10:52:02.322Z,48
2023-04-18T10:56:02.811Z,48
2023-04-18T11:00:00.928Z,48
2023-04-18T11:04:01.710Z,49
2023-04-18T11:08:01.133Z,49
2023-04-18T11:12:02.900Z,47
2023-04-18T11:16:01.203Z,47
2023-04-18T11:20:02.120Z,47
2023-04-18T11:24:01.557Z,46
2023-04-18T11:28:01.894Z,46
2023-04-18T11:32:01.151Z,46
2023-04-18T11:36:01.313Z,46
2023-04-18T11:40:01.710Z,46
2023-04-18T11:44:04.945Z,45
2023-04-18T11:48:01.635Z,45
2023-04-18T11:52:09.953Z,45
2023-04-18T11:56:02.680Z,45
2023-04-18T12:00:01.170Z,45
2023-04-18T12:04:02.902Z,45
2023-04-18T12:08:04.809Z,45
2023-04-18T12:12:02.319Z,45
2023-04-18T12:16:01.514Z,45
2023-04-18T12:20:01.439Z,45
2023-04-18T12:24:10.592Z,41
2023-04-18T12:28:02.650Z,41
2023-04-18T12:32:01.820Z,39
2023-04-18T12:36:01.042Z,39
2023-04-18T12:40:01.025Z,39
2023-04-18T12:44:01.073Z,37
2023-04-18T12:48:01.298Z,37
2023-04-18T12:52:01.118Z,39
2023-04-18T12:56:01.529Z,39
2023-04-18T13:00:01.221Z,39
2023-04-18T13:04:12.787Z,38
2023-04-18T13:08:15.910Z,38
2023-04-18T13:12:01.520Z,38
2023-04-18T13:16:01.086Z,38
2023-04-18T13:20:01.230Z,38
2023-04-18T13:24:00.973Z,38
2023-04-18T13:28:01.413Z,38
2023-04-18T13:32:01.136Z,37
2023-04-18T13:36:00.862Z,37
2023-04-18T13:40:01.047Z,37
2023-04-18T13:44:01.017Z,37
2023-04-18T13:48:01.005Z,37
2023-04-18T13:52:01.419Z,37
2023-04-18T13:56:01.358Z,37
2023-04-18T14:00:00.833Z,37
2023-04-18T14:04:02.232Z,38
2023-04-18T14:08:03.065Z,38
2023-04-18T14:12:01.309Z,38
2023-04-18T14:16:02.402Z,38
2023-04-18T14:20:01.544Z,38
2023-04-18T14:24:00.999Z,36
2023-04-18T14:28:05.896Z,36
2023-04-18T14:32:00.984Z,37
2023-04-18T14:36:01.103Z,37
2023-04-18T14:40:00.983Z,37
2023-04-18T14:44:02.572Z,36
2023-04-18T14:48:01.070Z,36
2023-04-18T14:52:01.108Z,36
2023-04-18T14:56:00.950Z,36
2023-04-18T15:00:00.926Z,36
2023-04-18T15:04:03.653Z,36
2023-04-18T15:08:01.072Z,36
2023-04-18T15:12:00.896Z,36
2023-04-18T15:16:01.244Z,36
2023-04-18T15:20:00.936Z,36
2023-04-18T15:24:01.011Z,36
2023-04-18T15:28:01.039Z,36
2023-04-18T15:32:01.119Z,36
2023-04-18T15:36:00.933Z,36
2023-04-18T15:40:01.190Z,36
2023-04-18T15:44:00.898Z,36
2023-04-18T15:48:01.301Z,36
2023-04-18T15:52:02.333Z,37
2023-04-18T15:56:01.467Z,37
2023-04-18T16:00:00.839Z,37
2023-04-18T16:04:01.296Z,37
2023-04-18T16:08:01.658Z,37
2023-04-18T16:12:02.441Z,38
2023-04-18T16:16:03.389Z,38
2023-04-18T16:20:01.154Z,38
2023-04-18T16:24:00.992Z,38
2023-04-18T16:28:01.189Z,38
2023-04-18T16:32:00.950Z,39
2023-04-18T16:36:02.328Z,39
2023-04-18T16:40:01.246Z,39
2023-04-18T16:44:01.128Z,37
2023-04-18T16:48:00.883Z,37
2023-04-18T16:52:01.244Z,39
2023-04-18T16:56:02.281Z,39
2023-04-18T17:00:01.922Z,39
2023-04-18T17:04:01.161Z,39
2023-04-18T17:08:02.691Z,39
2023-04-18T17:12:00.975Z,40
2023-04-18T17:16:01.087Z,40
2023-04-18T17:20:00.866Z,40
2023-04-18T17:24:02.892Z,43
2023-04-18T17:28:01.440Z,43
2023-04-18T17:32:01.078Z,45
2023-04-18T17:36:00.826Z,45
2023-04-18T17:40:05.452Z,45
2023-04-18T17:44:00.956Z,49
2023-04-18T17:48:02.279Z,49
2023-04-18T17:52:01.023Z,50
2023-04-18T17:56:02.586Z,50
2023-04-18T18:00:00.874Z,50
2023-04-18T18:04:01.729Z,52
2023-04-18T18:08:01.392Z,52
2023-04-18T18:12:01.671Z,53
2023-04-18T18:16:00.982Z,53
2023-04-18T18:20:00.987Z,53
2023-04-18T18:24:00.884Z,54
2023-04-18T18:28:02.457Z,54
2023-04-18T18:32:00.883Z,54
2023-04-18T18:36:01.073Z,54
2023-04-18T18:40:03.679Z,54
2023-04-18T18:44:01.031Z,54
2023-04-18T18:48:02.931Z,54
2023-04-18T18:52:03.958Z,54
2023-04-18T18:56:00.953Z,54
2023-04-18T19:00:00.969Z,54
2023-04-18T19:04:02.087Z,54
2023-04-18T19:08:03.467Z,54
2023-04-18T19:12:00.825Z,58
2023-04-18T19:16:01.199Z,58
2023-04-18T19:20:00.987Z,58
2023-04-18T19:24:00.978Z,60
2023-04-18T19:28:01.060Z,60
2023-04-18T19:32:01.387Z,61
2023-04-18T19:36:01.279Z,61
2023-04-18T19:40:01.811Z,61
2023-04-18T19:44:00.885Z,61
2023-04-18T19:48:01.033Z,61
2023-04-18T19:52:01.147Z,62
2023-04-18T19:56:01.197Z,62
2023-04-18T20:00:00.882Z,62
2023-04-18T20:04:01.699Z,63
2023-04-18T20:08:00.883Z,63
2023-04-18T20:12:01.107Z,63
2023-04-18T20:16:01.551Z,63
2023-04-18T20:20:01.394Z,63
2023-04-18T20:24:00.864Z,64
2023-04-18T20:28:01.311Z,64
2023-04-18T20:32:00.926Z,64
2023-04-18T20:36:00.892Z,64
2023-04-18T20:40:01.764Z,64
2023-04-18T20:44:04.213Z,65
2023-04-18T20:48:01.142Z,65
2023-04-18T20:52:01.156Z,66
2023-04-18T20:56:01.970Z,66
2023-04-18T21:00:01.291Z,66
2023-04-18T21:04:01.127Z,66
2023-04-18T21:08:01.025Z,66
2023-04-18T21:12:01.579Z,67
2023-04-18T21:16:02.654Z,67
2023-04-18T21:20:00.917Z,67
2023-04-18T21:24:01.531Z,67
2023-04-18T21:28:01.098Z,67
2023-04-18T21:32:01.167Z,68
2023-04-18T21:36:00.867Z,68
2023-04-18T21:40:01.154Z,68
2023-04-18T21:44:00.851Z,69
2023-04-18T21:48:01.185Z,69
2023-04-18T21:52:01.108Z,69
2023-04-18T21:56:00.977Z,69
2023-04-18T22:00:00.937Z,69
2023-04-18T22:04:01.334Z,69
2023-04-18T22:08:02.018Z,69
2023-04-18T22:12:02.772Z,69
2023-04-18T22:16:03.281Z,69
2023-04-18T22:20:02.743Z,69
2023-04-18T22:24:00.878Z,69
2023-04-18T22:28:01.557Z,69
2023-04-18T22:32:00.834Z,69
2023-04-18T22:36:00.965Z,69
2023-04-18T22:40:01.210Z,69
2023-04-18T22:44:01.016Z,72
2023-04-18T22:48:00.963Z,72
2023-04-18T22:52:01.606Z,72
2023-04-18T22:56:00.851Z,72
2023-04-18T23:00:01.113Z,72
2023-04-18T23:04:01.732Z,72
2023-04-18T23:08:01.020Z,72
2023-04-18T23:12:01.521Z,73
2023-04-18T23:16:01.293Z,73
2023-04-18T23:20:00.852Z,73
2023-04-18T23:24:01.053Z,73
2023-04-18T23:28:01.040Z,73
2023-04-18T23:32:00.915Z,73
2023-04-18T23:36:00.988Z,73
2023-04-18T23:40:01.715Z,73
2023-04-18T23:44:01.142Z,74
2023-04-18T23:48:00.995Z,74
2023-04-18T23:52:01.025Z,74
2023-04-18T23:56:00.947Z,74
